sensor_id;sensor_type;location;lat;lon;timestamp;pressure;altitude;pressure_sealevel;temperature;humidity
48872;BME280;36154;51.674;7.824;2023-02-04T00:02:23;102210.28;;;19.91;47.11
48872;BME280;36154;51.674;7.824;2023-02-04T00:04:49;102195.63;;;19.90;47.07
48872;BME280;36154;51.674;7.824;2023-02-04T00:07:14;102206.84;;;19.89;46.54
48872;BME280;36154;51.674;7.824;2023-02-04T00:09:42;102205.97;;;19.88;47.08
48872;BME280;36154;51.674;7.824;2023-02-04T00:12:08;102200.81;;;19.88;47.04
48872;BME280;36154;51.674;7.824;2023-02-04T00:14:34;102211.16;;;19.88;47.08
48872;BME280;36154;51.674;7.824;2023-02-04T00:17:00;102213.75;;;19.88;46.81
48872;BME280;36154;51.674;7.824;2023-02-04T00:19:25;102214.59;;;19.87;46.86
48872;BME280;36154;51.674;7.824;2023-02-04T00:21:50;102223.22;;;19.88;46.86
48872;BME280;36154;51.674;7.824;2023-02-04T00:24:15;102221.50;;;19.88;47.04
48872;BME280;36154;51.674;7.824;2023-02-04T00:26:41;102232.69;;;19.87;46.87
48872;BME280;36154;51.674;7.824;2023-02-04T00:29:06;102232.69;;;19.87;46.99
48872;BME280;36154;51.674;7.824;2023-02-04T00:31:31;102230.97;;;19.88;46.81
48872;BME280;36154;51.674;7.824;2023-02-04T00:33:57;102224.94;;;19.86;46.90
48872;BME280;36154;51.674;7.824;2023-02-04T00:36:23;102239.63;;;19.87;46.79
48872;BME280;36154;51.674;7.824;2023-02-04T00:38:49;102231.84;;;19.85;46.95
48872;BME280;36154;51.674;7.824;2023-02-04T00:41:14;102241.31;;;19.86;46.80
48872;BME280;36154;51.674;7.824;2023-02-04T00:43:39;102234.44;;;19.85;46.71
48872;BME280;36154;51.674;7.824;2023-02-04T00:46:05;102233.59;;;19.83;46.83
48872;BME280;36154;51.674;7.824;2023-02-04T00:48:30;102243.03;;;19.84;47.06
48872;BME280;36154;51.674;7.824;2023-02-04T00:50:55;102248.22;;;19.84;46.94
48872;BME280;36154;51.674;7.824;2023-02-04T00:53:21;102253.38;;;19.84;46.87
48872;BME280;36154;51.674;7.824;2023-02-04T00:55:46;102262.88;;;19.84;46.75
48872;BME280;36154;51.674;7.824;2023-02-04T00:58:11;102264.63;;;19.83;46.81
48872;BME280;36154;51.674;7.824;2023-02-04T01:00:36;102274.97;;;19.83;46.88
48872;BME280;36154;51.674;7.824;2023-02-04T01:03:02;102273.22;;;19.84;46.94
48872;BME280;36154;51.674;7.824;2023-02-04T01:05:27;102268.06;;;19.82;46.77
48872;BME280;36154;51.674;7.824;2023-02-04T01:07:52;102262.03;;;19.83;46.75
48872;BME280;36154;51.674;7.824;2023-02-04T01:10:18;102262.88;;;19.82;46.99
48872;BME280;36154;51.674;7.824;2023-02-04T01:12:43;102263.72;;;19.81;46.68
48872;BME280;36154;51.674;7.824;2023-02-04T01:15:09;102272.38;;;19.80;46.88
48872;BME280;36154;51.674;7.824;2023-02-04T01:17:34;102274.06;;;19.81;46.81
48872;BME280;36154;51.674;7.824;2023-02-04T01:20:00;102279.25;;;19.81;46.62
48872;BME280;36154;51.674;7.824;2023-02-04T01:22:25;102280.97;;;19.81;46.83
48872;BME280;36154;51.674;7.824;2023-02-04T01:24:50;102293.06;;;19.80;46.82
48872;BME280;36154;51.674;7.824;2023-02-04T01:27:16;102294.75;;;19.80;46.96
48872;BME280;36154;51.674;7.824;2023-02-04T01:29:41;102300.81;;;19.80;46.71
48872;BME280;36154;51.674;7.824;2023-02-04T01:32:06;102300.81;;;19.80;46.62
48872;BME280;36154;51.674;7.824;2023-02-04T01:34:32;102306.84;;;19.79;46.62
48872;BME280;36154;51.674;7.824;2023-02-04T01:36:57;102303.41;;;19.79;46.54
48872;BME280;36154;51.674;7.824;2023-02-04T01:39:22;102307.72;;;19.78;46.62
48872;BME280;36154;51.674;7.824;2023-02-04T01:41:47;102309.44;;;19.79;46.61
48872;BME280;36154;51.674;7.824;2023-02-04T01:44:13;102311.16;;;19.79;46.80
48872;BME280;36154;51.674;7.824;2023-02-04T01:46:38;102305.13;;;19.78;46.70
48872;BME280;36154;51.674;7.824;2023-02-04T01:49:04;102307.72;;;19.78;46.83
48872;BME280;36154;51.674;7.824;2023-02-04T01:51:30;102311.16;;;19.77;46.73
48872;BME280;36154;51.674;7.824;2023-02-04T01:53:58;102302.56;;;19.78;46.45
48872;BME280;36154;51.674;7.824;2023-02-04T01:56:25;102306.84;;;19.78;46.67
48872;BME280;36154;51.674;7.824;2023-02-04T01:58:52;102311.16;;;19.77;46.63
48872;BME280;36154;51.674;7.824;2023-02-04T02:01:39;102326.69;;;19.77;46.59
48872;BME280;36154;51.674;7.824;2023-02-04T02:04:09;102321.50;;;19.77;46.73
48872;BME280;36154;51.674;7.824;2023-02-04T02:06:37;102322.34;;;19.76;46.59
48872;BME280;36154;51.674;7.824;2023-02-04T02:09:03;102327.53;;;19.76;46.70
48872;BME280;36154;51.674;7.824;2023-02-04T02:11:29;102338.75;;;19.75;46.64
48872;BME280;36154;51.674;7.824;2023-02-04T02:13:55;102336.16;;;19.77;46.69
48872;BME280;36154;51.674;7.824;2023-02-04T02:16:21;102335.28;;;19.76;46.72
48872;BME280;36154;51.674;7.824;2023-02-04T02:18:47;102335.28;;;19.76;46.72
48872;BME280;36154;51.674;7.824;2023-02-04T02:21:15;102323.22;;;19.75;46.63
48872;BME280;36154;51.674;7.824;2023-02-04T02:26:51;102343.94;;;19.75;46.70
48872;BME280;36154;51.674;7.824;2023-02-04T02:29:17;102347.34;;;19.74;46.72
48872;BME280;36154;51.674;7.824;2023-02-04T02:31:42;102349.09;;;19.75;46.80
48872;BME280;36154;51.674;7.824;2023-02-04T02:34:08;102351.69;;;19.75;46.52
48872;BME280;36154;51.674;7.824;2023-02-04T02:36:33;102343.03;;;19.73;46.65
48872;BME280;36154;51.674;7.824;2023-02-04T02:38:59;102345.63;;;19.74;46.62
48872;BME280;36154;51.674;7.824;2023-02-04T02:41:24;102350.78;;;19.73;46.72
48872;BME280;36154;51.674;7.824;2023-02-04T02:43:50;102350.78;;;19.73;46.60
48872;BME280;36154;51.674;7.824;2023-02-04T02:46:15;102356.84;;;19.73;46.56
48872;BME280;36154;51.674;7.824;2023-02-04T02:48:40;102355.13;;;19.72;46.63
48872;BME280;36154;51.674;7.824;2023-02-04T02:51:05;102358.56;;;19.73;46.50
48872;BME280;36154;51.674;7.824;2023-02-04T02:53:31;102361.13;;;19.73;46.61
48872;BME280;36154;51.674;7.824;2023-02-04T02:55:56;102356.00;;;19.71;46.52
48872;BME280;36154;51.674;7.824;2023-02-04T02:58:25;102359.44;;;19.72;46.63
48872;BME280;36154;51.674;7.824;2023-02-04T03:00:52;102351.66;;;19.72;46.41
48872;BME280;36154;51.674;7.824;2023-02-04T03:03:22;102344.75;;;19.68;46.56
48872;BME280;36154;51.674;7.824;2023-02-04T03:05:53;102355.09;;;19.71;46.50
48872;BME280;36154;51.674;7.824;2023-02-04T03:08:19;102360.28;;;19.71;46.60
48872;BME280;36154;51.674;7.824;2023-02-04T03:10:45;102356.84;;;19.70;46.55
48872;BME280;36154;51.674;7.824;2023-02-04T03:13:12;102359.44;;;19.72;46.38
48872;BME280;36154;51.674;7.824;2023-02-04T03:15:39;102367.19;;;19.72;46.64
48872;BME280;36154;51.674;7.824;2023-02-04T03:18:05;102368.03;;;19.71;46.68
48872;BME280;36154;51.674;7.824;2023-02-04T03:20:31;102372.34;;;19.70;46.63
48872;BME280;36154;51.674;7.824;2023-02-04T03:22:58;102374.09;;;19.71;46.39
48872;BME280;36154;51.674;7.824;2023-02-04T03:25:24;102368.03;;;19.71;46.62
48872;BME280;36154;51.674;7.824;2023-02-04T03:27:51;102368.91;;;19.70;46.66
48872;BME280;36154;51.674;7.824;2023-02-04T03:30:19;102358.56;;;19.70;46.45
48872;BME280;36154;51.674;7.824;2023-02-04T03:32:45;102356.84;;;19.70;46.59
48872;BME280;36154;51.674;7.824;2023-02-04T03:35:10;102357.69;;;19.71;46.55
48872;BME280;36154;51.674;7.824;2023-02-04T03:37:35;102365.44;;;19.69;46.44
48872;BME280;36154;51.674;7.824;2023-02-04T03:40:01;102371.50;;;19.70;46.52
48872;BME280;36154;51.674;7.824;2023-02-04T03:42:26;102368.03;;;19.69;46.60
48872;BME280;36154;51.674;7.824;2023-02-04T03:44:51;102375.78;;;19.69;46.50
48872;BME280;36154;51.674;7.824;2023-02-04T03:47:16;102380.09;;;19.69;46.43
48872;BME280;36154;51.674;7.824;2023-02-04T03:49:42;102387.88;;;19.69;46.44
48872;BME280;36154;51.674;7.824;2023-02-04T03:52:07;102385.28;;;19.69;46.42
48872;BME280;36154;51.674;7.824;2023-02-04T03:54:33;102385.28;;;19.69;46.38
48872;BME280;36154;51.674;7.824;2023-02-04T03:56:58;102393.88;;;19.68;46.41
48872;BME280;36154;51.674;7.824;2023-02-04T03:59:23;102398.22;;;19.69;46.48
48872;BME280;36154;51.674;7.824;2023-02-04T04:01:48;102394.78;;;19.68;46.29
48872;BME280;36154;51.674;7.824;2023-02-04T04:04:14;102397.34;;;19.67;46.42
48872;BME280;36154;51.674;7.824;2023-02-04T04:06:39;102403.38;;;19.67;46.39
48872;BME280;36154;51.674;7.824;2023-02-04T04:09:04;102400.78;;;19.69;46.28
48872;BME280;36154;51.674;7.824;2023-02-04T04:11:30;102404.22;;;19.68;46.30
48872;BME280;36154;51.674;7.824;2023-02-04T04:13:56;102416.34;;;19.72;46.31
48872;BME280;36154;51.674;7.824;2023-02-04T04:16:21;102422.38;;;19.75;46.54
48872;BME280;36154;51.674;7.824;2023-02-04T04:18:46;102418.06;;;19.79;46.54
48872;BME280;36154;51.674;7.824;2023-02-04T04:21:12;102425.00;;;19.83;46.57
48872;BME280;36154;51.674;7.824;2023-02-04T04:23:37;102428.44;;;19.85;46.40
48872;BME280;36154;51.674;7.824;2023-02-04T04:26:03;102428.44;;;19.88;46.57
48872;BME280;36154;51.674;7.824;2023-02-04T04:28:28;102435.34;;;19.92;46.45
48872;BME280;36154;51.674;7.824;2023-02-04T04:30:53;102437.09;;;19.97;46.44
48872;BME280;36154;51.674;7.824;2023-02-04T04:33:19;102439.66;;;20.00;46.37
48872;BME280;36154;51.674;7.824;2023-02-04T04:35:44;102442.28;;;20.03;46.38
48872;BME280;36154;51.674;7.824;2023-02-04T04:38:09;102437.09;;;20.06;46.38
48872;BME280;36154;51.674;7.824;2023-02-04T04:40:35;102442.28;;;20.09;46.36
48872;BME280;36154;51.674;7.824;2023-02-04T04:43:00;102448.31;;;20.11;46.31
48872;BME280;36154;51.674;7.824;2023-02-04T04:45:25;102457.84;;;20.13;46.36
48872;BME280;36154;51.674;7.824;2023-02-04T04:47:50;102459.56;;;20.18;46.27
48872;BME280;36154;51.674;7.824;2023-02-04T04:50:16;102460.41;;;20.18;46.34
48872;BME280;36154;51.674;7.824;2023-02-04T04:52:41;102466.47;;;20.20;46.27
48872;BME280;36154;51.674;7.824;2023-02-04T04:55:07;102469.06;;;20.22;46.14
48872;BME280;36154;51.674;7.824;2023-02-04T04:57:32;102459.56;;;20.22;46.10
48872;BME280;36154;51.674;7.824;2023-02-04T04:59:58;102468.19;;;20.24;46.18
48872;BME280;36154;51.674;7.824;2023-02-04T05:02:23;102470.78;;;20.24;45.93
48872;BME280;36154;51.674;7.824;2023-02-04T05:04:48;102475.97;;;20.26;45.95
48872;BME280;36154;51.674;7.824;2023-02-04T05:07:14;102479.41;;;20.26;45.89
48872;BME280;36154;51.674;7.824;2023-02-04T05:09:39;102482.88;;;20.27;45.88
48872;BME280;36154;51.674;7.824;2023-02-04T05:12:04;102482.00;;;20.26;45.83
48872;BME280;36154;51.674;7.824;2023-02-04T05:14:30;102475.13;;;20.25;45.62
48872;BME280;36154;51.674;7.824;2023-02-04T05:16:55;102477.69;;;20.25;45.78
48872;BME280;36154;51.674;7.824;2023-02-04T05:19:20;102480.28;;;20.25;45.76
48872;BME280;36154;51.674;7.824;2023-02-04T05:21:46;102483.72;;;20.24;45.66
48872;BME280;36154;51.674;7.824;2023-02-04T05:24:11;102494.09;;;20.24;45.67
48872;BME280;36154;51.674;7.824;2023-02-04T05:26:36;102495.81;;;20.24;45.84
48872;BME280;36154;51.674;7.824;2023-02-04T05:29:02;102500.13;;;20.23;45.78
48872;BME280;36154;51.674;7.824;2023-02-04T05:31:27;102503.56;;;20.21;45.79
48872;BME280;36154;51.674;7.824;2023-02-04T05:33:53;102513.91;;;20.21;45.81
48872;BME280;36154;51.674;7.824;2023-02-04T05:36:19;102508.75;;;20.21;45.96
48872;BME280;36154;51.674;7.824;2023-02-04T05:38:44;102501.84;;;20.15;45.90
48872;BME280;36154;51.674;7.824;2023-02-04T05:41:09;102510.47;;;20.19;45.88
48872;BME280;36154;51.674;7.824;2023-02-04T05:43:35;102519.97;;;20.17;45.90
48872;BME280;36154;51.674;7.824;2023-02-04T05:46:01;102526.00;;;20.17;45.92
48872;BME280;36154;51.674;7.824;2023-02-04T05:48:26;102529.44;;;20.16;46.14
48872;BME280;36154;51.674;7.824;2023-02-04T05:50:52;102532.91;;;20.15;46.01
48872;BME280;36154;51.674;7.824;2023-02-04T05:53:17;102535.47;;;20.15;45.98
48872;BME280;36154;51.674;7.824;2023-02-04T05:55:42;102533.75;;;20.14;46.15
48872;BME280;36154;51.674;7.824;2023-02-04T05:58:08;102537.19;;;20.13;46.16
48872;BME280;36154;51.674;7.824;2023-02-04T06:00:33;102536.31;;;20.12;46.15
48872;BME280;36154;51.674;7.824;2023-02-04T06:02:58;102541.50;;;20.11;45.94
48872;BME280;36154;51.674;7.824;2023-02-04T06:05:24;102545.81;;;20.10;46.07
48872;BME280;36154;51.674;7.824;2023-02-04T06:07:49;102550.97;;;20.09;45.98
48872;BME280;36154;51.674;7.824;2023-02-04T06:10:15;102542.34;;;20.07;46.20
48872;BME280;36154;51.674;7.824;2023-02-04T06:12:40;102546.66;;;20.06;46.19
48872;BME280;36154;51.674;7.824;2023-02-04T06:15:06;102538.91;;;20.05;46.15
48872;BME280;36154;51.674;7.824;2023-02-04T06:17:31;102560.47;;;20.05;46.25
48872;BME280;36154;51.674;7.824;2023-02-04T06:19:57;102561.31;;;20.04;46.22
48872;BME280;36154;51.674;7.824;2023-02-04T06:22:22;102560.44;;;20.02;46.17
48872;BME280;36154;51.674;7.824;2023-02-04T06:24:48;102565.63;;;20.02;46.25
48872;BME280;36154;51.674;7.824;2023-02-04T06:27:14;102575.13;;;20.02;46.13
48872;BME280;36154;51.674;7.824;2023-02-04T06:29:43;102575.13;;;20.02;46.12
48872;BME280;36154;51.674;7.824;2023-02-04T06:32:09;102577.69;;;20.00;46.13
48872;BME280;36154;51.674;7.824;2023-02-04T06:34:34;102573.38;;;19.99;46.23
48872;BME280;36154;51.674;7.824;2023-02-04T06:36:59;102577.69;;;19.99;46.03
48872;BME280;36154;51.674;7.824;2023-02-04T06:39:24;102580.28;;;19.99;46.12
48872;BME280;36154;51.674;7.824;2023-02-04T06:41:50;102584.59;;;19.98;46.04
48872;BME280;36154;51.674;7.824;2023-02-04T06:44:15;102588.03;;;19.97;46.21
48872;BME280;36154;51.674;7.824;2023-02-04T06:46:40;102592.34;;;19.97;46.09
48872;BME280;36154;51.674;7.824;2023-02-04T06:49:05;102588.00;;;19.96;46.18
48872;BME280;36154;51.674;7.824;2023-02-04T06:51:31;102583.69;;;19.94;46.12
48872;BME280;36154;51.674;7.824;2023-02-04T06:53:56;102594.91;;;19.95;46.10
48872;BME280;36154;51.674;7.824;2023-02-04T06:56:23;102594.03;;;19.94;46.07
48872;BME280;36154;51.674;7.824;2023-02-04T06:58:48;102595.75;;;19.92;46.07
48872;BME280;36154;51.674;7.824;2023-02-04T07:01:13;102597.50;;;19.93;46.33
48872;BME280;36154;51.674;7.824;2023-02-04T07:03:39;102606.09;;;19.92;46.11
48872;BME280;36154;51.674;7.824;2023-02-04T07:06:04;102606.09;;;19.92;46.14
48872;BME280;36154;51.674;7.824;2023-02-04T07:08:29;102614.75;;;19.91;46.24
48872;BME280;36154;51.674;7.824;2023-02-04T07:10:55;102609.56;;;19.91;46.10
48872;BME280;36154;51.674;7.824;2023-02-04T07:13:20;102619.03;;;19.91;46.28
48872;BME280;36154;51.674;7.824;2023-02-04T07:15:46;102616.44;;;19.89;46.10
48872;BME280;36154;51.674;7.824;2023-02-04T07:18:11;102623.34;;;19.90;46.12
48872;BME280;36154;51.674;7.824;2023-02-04T07:20:36;102630.25;;;19.93;45.81
48872;BME280;36154;51.674;7.824;2023-02-04T07:23:01;102629.41;;;19.94;46.00
48872;BME280;36154;51.674;7.824;2023-02-04T07:25:27;102619.94;;;19.98;46.47
48872;BME280;36154;51.674;7.824;2023-02-04T07:27:52;102613.91;;;19.97;46.17
48872;BME280;36154;51.674;7.824;2023-02-04T07:30:17;102623.41;;;20.04;46.29
48872;BME280;36154;51.674;7.824;2023-02-04T07:32:43;102623.41;;;20.06;46.15
48872;BME280;36154;51.674;7.824;2023-02-04T07:35:09;102628.63;;;20.10;46.22
48872;BME280;36154;51.674;7.824;2023-02-04T07:37:35;102630.34;;;20.13;46.02
48872;BME280;36154;51.674;7.824;2023-02-04T07:40:01;102626.91;;;20.14;46.32
48872;BME280;36154;51.674;7.824;2023-02-04T07:42:26;102626.94;;;20.17;46.15
48872;BME280;36154;51.674;7.824;2023-02-04T07:44:52;102632.13;;;20.20;46.10
48872;BME280;36154;51.674;7.824;2023-02-04T07:47:17;102637.31;;;20.23;46.03
48872;BME280;36154;51.674;7.824;2023-02-04T07:49:42;102633.00;;;20.25;46.19
48872;BME280;36154;51.674;7.824;2023-02-04T07:52:07;102639.06;;;20.27;45.98
48872;BME280;36154;51.674;7.824;2023-02-04T07:54:33;102648.56;;;20.28;46.11
48872;BME280;36154;51.674;7.824;2023-02-04T07:56:59;102638.22;;;20.30;45.96
48872;BME280;36154;51.674;7.824;2023-02-04T07:59:24;102640.78;;;20.31;45.86
48872;BME280;36154;51.674;7.824;2023-02-04T08:01:49;102646.84;;;20.32;45.93
48872;BME280;36154;51.674;7.824;2023-02-04T08:04:15;102650.28;;;20.33;45.76
48872;BME280;36154;51.674;7.824;2023-02-04T08:06:40;102645.97;;;20.33;45.64
48872;BME280;36154;51.674;7.824;2023-02-04T08:09:05;102652.03;;;20.34;45.69
48872;BME280;36154;51.674;7.824;2023-02-04T08:11:33;102649.44;;;20.34;45.86
48872;BME280;36154;51.674;7.824;2023-02-04T08:13:58;102658.94;;;20.35;45.82
48872;BME280;36154;51.674;7.824;2023-02-04T08:16:23;102653.75;;;20.35;45.77
48872;BME280;36154;51.674;7.824;2023-02-04T08:18:49;102655.50;;;20.36;46.00
48872;BME280;36154;51.674;7.824;2023-02-04T08:21:14;102663.25;;;20.36;46.13
48872;BME280;36154;51.674;7.824;2023-02-04T08:23:39;102665.00;;;20.37;46.14
48872;BME280;36154;51.674;7.824;2023-02-04T08:26:08;102662.41;;;20.38;46.34
48872;BME280;36154;51.674;7.824;2023-02-04T08:28:34;102677.09;;;20.41;46.10
48872;BME280;36154;51.674;7.824;2023-02-04T08:30:59;102677.09;;;20.41;46.20
48872;BME280;36154;51.674;7.824;2023-02-04T08:33:24;102687.44;;;20.41;46.16
48872;BME280;36154;51.674;7.824;2023-02-04T08:35:49;102686.59;;;20.40;46.41
48872;BME280;36154;51.674;7.824;2023-02-04T08:38:16;102696.94;;;20.40;46.31
48872;BME280;36154;51.674;7.824;2023-02-04T08:40:41;102696.06;;;20.40;46.70
48872;BME280;36154;51.674;7.824;2023-02-04T08:43:06;102706.41;;;20.40;46.48
48872;BME280;36154;51.674;7.824;2023-02-04T08:45:32;102694.34;;;20.39;46.29
48872;BME280;36154;51.674;7.824;2023-02-04T08:47:57;102702.13;;;20.39;46.15
48872;BME280;36154;51.674;7.824;2023-02-04T08:50:22;102712.47;;;20.39;46.15
48872;BME280;36154;51.674;7.824;2023-02-04T08:52:48;102715.06;;;20.39;46.15
48872;BME280;36154;51.674;7.824;2023-02-04T08:55:15;102718.50;;;20.38;46.05
48872;BME280;36154;51.674;7.824;2023-02-04T08:57:40;102718.50;;;20.38;45.91
48872;BME280;36154;51.674;7.824;2023-02-04T09:00:06;102718.50;;;20.38;46.29
48872;BME280;36154;51.674;7.824;2023-02-04T09:02:32;102722.81;;;20.37;46.17
48872;BME280;36154;51.674;7.824;2023-02-04T09:04:59;102730.59;;;20.37;46.19
48872;BME280;36154;51.674;7.824;2023-02-04T09:07:27;102727.16;;;20.37;46.16
48872;BME280;36154;51.674;7.824;2023-02-04T09:09:53;102721.97;;;20.37;46.02
48872;BME280;36154;51.674;7.824;2023-02-04T09:12:18;102727.16;;;20.37;46.15
48872;BME280;36154;51.674;7.824;2023-02-04T09:14:43;102732.31;;;20.34;45.93
48872;BME280;36154;51.674;7.824;2023-02-04T09:17:08;102730.56;;;20.36;46.10
48872;BME280;36154;51.674;7.824;2023-02-04T09:19:34;102736.59;;;20.36;46.13
48872;BME280;36154;51.674;7.824;2023-02-04T09:21:59;102739.19;;;20.35;46.33
48872;BME280;36154;51.674;7.824;2023-02-04T09:24:24;102745.25;;;20.35;46.01
48872;BME280;36154;51.674;7.824;2023-02-04T09:26:49;102744.38;;;20.35;46.26
48872;BME280;36154;51.674;7.824;2023-02-04T09:29:15;102753.00;;;20.34;46.50
48872;BME280;36154;51.674;7.824;2023-02-04T09:31:40;102746.09;;;20.33;46.07
48872;BME280;36154;51.674;7.824;2023-02-04T09:34:06;102740.06;;;20.32;46.34
48872;BME280;36154;51.674;7.824;2023-02-04T09:36:32;102739.16;;;20.31;46.19
48872;BME280;36154;51.674;7.824;2023-02-04T09:39:03;102745.22;;;20.32;46.27
48872;BME280;36154;51.674;7.824;2023-02-04T09:41:28;102749.53;;;20.31;46.32
48872;BME280;36154;51.674;7.824;2023-02-04T09:43:54;102749.53;;;20.31;46.40
48872;BME280;36154;51.674;7.824;2023-02-04T09:46:21;102745.22;;;20.30;46.39
48872;BME280;36154;51.674;7.824;2023-02-04T09:48:48;102746.06;;;20.31;46.31
48872;BME280;36154;51.674;7.824;2023-02-04T09:51:17;102755.56;;;20.30;46.49
48872;BME280;36154;51.674;7.824;2023-02-04T09:53:44;102752.13;;;20.28;46.34
48872;BME280;36154;51.674;7.824;2023-02-04T09:56:10;102749.53;;;20.28;46.28
48872;BME280;36154;51.674;7.824;2023-02-04T09:58:35;102749.53;;;20.28;46.34
48872;BME280;36154;51.674;7.824;2023-02-04T10:01:18;102752.97;;;20.27;46.22
48872;BME280;36154;51.674;7.824;2023-02-04T10:03:45;102759.88;;;20.27;46.34
48872;BME280;36154;51.674;7.824;2023-02-04T10:06:13;102761.56;;;20.26;46.26
48872;BME280;36154;51.674;7.824;2023-02-04T10:08:39;102758.13;;;20.27;46.23
48872;BME280;36154;51.674;7.824;2023-02-04T10:11:05;102765.91;;;20.29;46.27
48872;BME280;36154;51.674;7.824;2023-02-04T10:13:36;102761.59;;;20.29;46.01
48872;BME280;36154;51.674;7.824;2023-02-04T10:16:08;102769.38;;;20.29;46.12
48872;BME280;36154;51.674;7.824;2023-02-04T10:18:35;102771.09;;;20.30;46.34
48872;BME280;36154;51.674;7.824;2023-02-04T10:21:17;102771.09;;;20.30;46.29
48872;BME280;36154;51.674;7.824;2023-02-04T10:23:46;102780.59;;;20.31;46.01
48872;BME280;36154;51.674;7.824;2023-02-04T10:26:16;102778.88;;;20.32;46.17
48872;BME280;36154;51.674;7.824;2023-02-04T10:28:41;102779.75;;;20.33;46.14
48872;BME280;36154;51.674;7.824;2023-02-04T10:31:27;102777.16;;;20.33;46.12
48872;BME280;36154;51.674;7.824;2023-02-04T10:36:41;102784.06;;;20.34;46.04
48872;BME280;36154;51.674;7.824;2023-02-04T10:39:18;102786.66;;;20.32;45.95
48872;BME280;36154;51.674;7.824;2023-02-04T10:41:57;102784.06;;;20.34;46.04
48872;BME280;36154;51.674;7.824;2023-02-04T10:44:31;102786.66;;;20.34;46.16
48872;BME280;36154;51.674;7.824;2023-02-04T10:47:20;102790.09;;;20.33;46.11
48872;BME280;36154;51.674;7.824;2023-02-04T10:52:19;102786.66;;;20.34;46.09
48872;BME280;36154;51.674;7.824;2023-02-04T10:54:45;102794.44;;;20.34;45.83
48872;BME280;36154;51.674;7.824;2023-02-04T10:57:38;102785.78;;;20.35;46.00
48872;BME280;36154;51.674;7.824;2023-02-04T11:00:06;102784.06;;;20.30;46.03
48872;BME280;36154;51.674;7.824;2023-02-04T11:05:20;102795.31;;;20.36;45.78
48872;BME280;36154;51.674;7.824;2023-02-04T11:07:47;102796.16;;;20.35;45.91
48872;BME280;36154;51.674;7.824;2023-02-04T11:10:20;102794.44;;;20.35;45.74
48872;BME280;36154;51.674;7.824;2023-02-04T11:12:57;102801.31;;;20.35;45.86
48872;BME280;36154;51.674;7.824;2023-02-04T11:18:25;102802.19;;;20.32;45.79
48872;BME280;36154;51.674;7.824;2023-02-04T11:20:53;102809.94;;;20.30;45.92
48872;BME280;36154;51.674;7.824;2023-02-04T11:34:10;102797.84;;;20.29;45.87
48872;BME280;36154;51.674;7.824;2023-02-04T11:39:15;102795.25;;;20.29;45.75
48872;BME280;36154;51.674;7.824;2023-02-04T11:41:44;102803.03;;;20.29;45.86
48872;BME280;36154;51.674;7.824;2023-02-04T11:44:10;102800.44;;;20.29;45.79
48872;BME280;36154;51.674;7.824;2023-02-04T11:46:36;102798.72;;;20.30;45.67
48872;BME280;36154;51.674;7.824;2023-02-04T11:49:01;102807.34;;;20.30;45.83
48872;BME280;36154;51.674;7.824;2023-02-04T11:51:33;102803.91;;;20.30;45.81
48872;BME280;36154;51.674;7.824;2023-02-04T11:53:59;102809.94;;;20.30;45.74
48872;BME280;36154;51.674;7.824;2023-02-04T11:56:27;102803.03;;;20.29;45.72
48872;BME280;36154;51.674;7.824;2023-02-04T11:58:55;102805.63;;;20.31;45.78
48872;BME280;36154;51.674;7.824;2023-02-04T12:01:30;102810.81;;;20.31;45.79
48872;BME280;36154;51.674;7.824;2023-02-04T12:03:57;102799.59;;;20.30;45.73
48872;BME280;36154;51.674;7.824;2023-02-04T12:06:28;102805.63;;;20.31;45.82
48872;BME280;36154;51.674;7.824;2023-02-04T12:09:19;102798.72;;;20.31;45.67
48872;BME280;36154;51.674;7.824;2023-02-04T12:11:54;102794.41;;;20.30;45.66
48872;BME280;36154;51.674;7.824;2023-02-04T12:14:20;102805.59;;;20.29;45.76
48872;BME280;36154;51.674;7.824;2023-02-04T12:16:49;102808.22;;;20.31;45.77
48872;BME280;36154;51.674;7.824;2023-02-04T12:19:20;102807.34;;;20.30;45.80
48872;BME280;36154;51.674;7.824;2023-02-04T12:21:46;102811.66;;;20.31;46.40
48872;BME280;36154;51.674;7.824;2023-02-04T12:24:11;102804.78;;;20.32;45.89
48872;BME280;36154;51.674;7.824;2023-02-04T12:26:36;102811.69;;;20.35;45.91
48872;BME280;36154;51.674;7.824;2023-02-04T12:29:02;102821.19;;;20.34;45.93
48872;BME280;36154;51.674;7.824;2023-02-04T12:31:29;102817.75;;;20.35;46.15
48872;BME280;36154;51.674;7.824;2023-02-04T12:33:55;102820.34;;;20.35;45.87
48872;BME280;36154;51.674;7.824;2023-02-04T12:36:20;102823.78;;;20.36;46.09
48872;BME280;36154;51.674;7.824;2023-02-04T12:38:46;102822.03;;;20.35;45.83
48872;BME280;36154;51.674;7.824;2023-02-04T12:41:11;102828.09;;;20.35;45.89
48872;BME280;36154;51.674;7.824;2023-02-04T12:43:36;102834.16;;;20.36;46.01
48872;BME280;36154;51.674;7.824;2023-02-04T12:46:02;102833.28;;;20.34;45.91
48872;BME280;36154;51.674;7.824;2023-02-04T12:48:27;102836.72;;;20.34;46.14
48872;BME280;36154;51.674;7.824;2023-02-04T12:50:53;102835.88;;;20.34;45.71
48872;BME280;36154;51.674;7.824;2023-02-04T12:53:18;102841.03;;;20.34;45.88
48872;BME280;36154;51.674;7.824;2023-02-04T12:55:43;102835.88;;;20.34;45.89
48872;BME280;36154;51.674;7.824;2023-02-04T12:58:08;102840.16;;;20.33;45.83
48872;BME280;36154;51.674;7.824;2023-02-04T13:00:34;102836.69;;;20.33;45.91
48872;BME280;36154;51.674;7.824;2023-02-04T13:02:59;102835.84;;;20.32;45.24
48872;BME280;36154;51.674;7.824;2023-02-04T13:05:25;102830.66;;;20.32;45.73
48872;BME280;36154;51.674;7.824;2023-02-04T13:07:50;102834.13;;;20.33;45.84
48872;BME280;36154;51.674;7.824;2023-02-04T13:10:16;102828.94;;;20.33;45.72
48872;BME280;36154;51.674;7.824;2023-02-04T13:12:42;102834.13;;;20.33;45.71
48872;BME280;36154;51.674;7.824;2023-02-04T13:15:08;102823.75;;;20.33;45.74